Burdett, Canada
Current Conditions -  °F | °C
As of 9:33 AM on Thursday 30 Oct 2014 (Local Time) from CYXH Reporting Station
Haze Haze  
Wind Chill: 23°   Ceiling: 300
Heat Index: 32°   Visibility: 0.75mi
Dew Point: 32°   Wind: 13mph
Humidity: 100%   Direction: 70°ENE
Pressure: 30.29"   Gusts: NA
Location:  49.82°N, 111.52°W
Report Text: CYXH 301533Z 07011KT 3/4SM BR VV003 M00/M00 A3029 RMK FG8 SLP284
Loading
Personal Weather Stations






























Interactive Weather Map
Tropical Storm Tracking
New forecast layout! Learn more

10-Day Weather Forecast

Advertisements
Track Severe Weather on mobile